Terminal Aerodrome Forecast
Issued by NWS Sioux Falls, SD

Home | Current Version | Previous Version | Graphics & Text | Print | Product List | Glossary On
Versions: 1 2 3 4 5 6 7 8 9 10 11 12 13 14 15 16 17
000
FTUS43 KFSD 241910 AAA
TAFHON
TAF AMD
KHON 241910Z 2419/2518 22007KT P6SM OVC007
      TEMPO 2422/2424 4SM BR BKN007
     FM250000 19006KT P6SM SCT120
     FM251000 VRB04KT 3SM BR BKN025
     FM251300 04008KT 2SM BR OVC012=

USA.gov is the U.S. government's official web portal to all federal, state and local government web resources and services.